Time,TemperatureF,DewpointF,PressureIn,WindDirection,WindDirectionDegrees,WindSpeedMPH,WindSpeedGustMPH,Humidity,HourlyPrecipIn,Conditions,Clouds,dailyrainin,SoftwareType,DateUTC
2013-04-02 00:02:00,27.7,23.8,30.28,NW,325,6.0,6.0,85,0.00,,,0.00,Wunderground v.1.15,2013-04-02 05:02:00,
2013-04-02 00:09:00,27.5,23.9,30.28,NW,325,6.0,6.0,86,0.00,,,0.00,Wunderground v.1.15,2013-04-02 05:09:00,
2013-04-02 00:14:00,27.5,23.9,30.28,NW,326,6.0,7.0,86,0.00,,,0.00,Wunderground v.1.15,2013-04-02 05:14:00,
2013-04-02 00:20:00,27.7,24.1,30.28,NW,326,7.0,8.0,86,0.00,,,0.00,Wunderground v.1.15,2013-04-02 05:20:00,
2013-04-02 00:25:00,27.8,23.9,30.28,NW,326,5.0,7.0,85,0.00,,,0.00,Wunderground v.1.15,2013-04-02 05:25:00,
2013-04-02 00:32:00,27.7,24.1,30.28,NW,326,7.0,7.0,86,0.00,,,0.00,Wunderground v.1.15,2013-04-02 05:32:00,
2013-04-02 00:38:00,27.6,24.0,30.28,NW,326,7.0,8.0,86,0.00,,,0.00,Wunderground v.1.15,2013-04-02 05:38:00,
2013-04-02 01:02:00,26.9,23.3,30.29,NW,324,6.0,6.0,86,0.00,,,0.00,Wunderground v.1.15,2013-04-02 06:02:00,
2013-04-02 01:08:00,26.8,23.4,30.29,NW,323,5.0,7.0,87,0.00,,,0.00,Wunderground v.1.15,2013-04-02 06:08:00,
2013-04-02 01:14:00,26.9,23.5,30.29,NW,323,4.0,6.0,87,0.00,,,0.00,Wunderground v.1.15,2013-04-02 06:14:00,
2013-04-02 01:19:00,26.7,23.4,30.29,NW,323,4.0,6.0,87,0.00,,,0.00,Wunderground v.1.15,2013-04-02 06:19:00,
2013-04-02 01:24:00,26.5,23.2,30.29,NW,322,4.0,7.0,87,0.00,,,0.00,Wunderground v.1.15,2013-04-02 06:24:00,
2013-04-02 01:29:00,26.5,23.2,30.29,NW,322,6.0,7.0,87,0.00,,,0.00,Wunderground v.1.15,2013-04-02 06:29:00,
2013-04-02 01:34:00,26.5,23.4,30.29,NW,322,7.0,7.0,88,0.00,,,0.00,Wunderground v.1.15,2013-04-02 06:34:00,
2013-04-02 01:40:00,26.6,23.5,30.29,NW,323,8.0,8.0,88,0.00,,,0.00,Wunderground v.1.15,2013-04-02 06:40:00,
2013-04-02 01:45:00,26.7,23.4,30.29,NW,323,4.0,8.0,87,0.00,,,0.00,Wunderground v.1.15,2013-04-02 06:45:00,
2013-04-02 01:50:00,26.6,23.3,30.29,NW,323,7.0,8.0,87,0.00,,,0.00,Wunderground v.1.15,2013-04-02 06:50:00,
2013-04-02 01:56:00,26.6,23.3,30.29,NW,323,7.0,9.0,87,0.00,,,0.00,Wunderground v.1.15,2013-04-02 06:56:00,
2013-04-02 02:03:00,26.7,23.4,30.29,NW,325,7.0,7.0,87,0.00,,,0.00,Wunderground v.1.15,2013-04-02 07:03:00,
2013-04-02 02:08:00,26.8,23.4,30.29,NW,325,7.0,9.0,87,0.00,,,0.00,Wunderground v.1.15,2013-04-02 07:08:00,
2013-04-02 02:13:00,26.8,23.2,30.29,NW,325,8.0,9.0,86,0.00,,,0.00,Wunderground v.1.15,2013-04-02 07:13:00,
2013-04-02 02:18:00,26.8,23.2,30.29,NW,325,9.0,9.0,86,0.00,,,0.00,Wunderground v.1.15,2013-04-02 07:18:00,
2013-04-02 02:23:00,26.8,23.2,30.29,NW,325,5.0,7.0,86,0.00,,,0.00,Wunderground v.1.15,2013-04-02 07:23:00,
2013-04-02 02:28:00,26.8,23.2,30.29,NW,325,5.0,7.0,86,0.00,,,0.00,Wunderground v.1.15,2013-04-02 07:28:00,
2013-04-02 02:42:00,26.3,22.7,30.29,NW,325,4.0,5.0,86,0.00,,,0.00,Wunderground v.1.15,2013-04-02 07:42:00,
2013-04-02 02:47:00,26.2,22.6,30.29,NW,325,5.0,7.0,86,0.00,,,0.00,Wunderground v.1.15,2013-04-02 07:47:00,
2013-04-02 03:00:00,25.8,22.5,30.29,NW,325,4.0,5.0,87,0.00,,,0.00,Wunderground v.1.15,2013-04-02 08:00:00,
2013-04-02 03:10:00,25.5,22.4,30.29,NW,325,3.0,4.0,88,0.00,,,0.00,Wunderground v.1.15,2013-04-02 08:10:00,
2013-04-02 03:15:00,25.4,22.3,30.29,NW,325,3.0,3.0,88,0.00,,,0.00,Wunderground v.1.15,2013-04-02 08:15:00,
2013-04-02 03:21:00,25.2,22.1,30.29,NW,325,2.0,4.0,88,0.00,,,0.00,Wunderground v.1.15,2013-04-02 08:21:00,
2013-04-02 03:25:00,25.0,21.9,30.29,NW,325,1.0,3.0,88,0.00,,,0.00,Wunderground v.1.15,2013-04-02 08:25:00,
2013-04-02 03:36:00,24.4,21.1,30.29,NW,325,0.0,2.0,87,0.00,,,0.00,Wunderground v.1.15,2013-04-02 08:36:00,
2013-04-02 03:50:00,23.0,20.0,30.29,NW,325,0.0,1.0,88,0.00,,,0.00,Wunderground v.1.15,2013-04-02 08:50:00,
2013-04-02 03:55:00,22.9,19.9,30.29,NW,325,0.0,0.0,88,0.00,,,0.00,Wunderground v.1.15,2013-04-02 08:55:00,
2013-04-02 04:00:00,22.8,20.0,30.29,NW,325,0.0,0.0,89,0.00,,,0.00,Wunderground v.1.15,2013-04-02 09:00:00,
2013-04-02 04:11:00,23.0,20.5,30.29,NW,325,1.0,2.0,90,0.00,,,0.00,Wunderground v.1.15,2013-04-02 09:11:00,
2013-04-02 04:16:00,23.3,20.8,30.29,NW,325,7.0,7.0,90,0.00,,,0.00,Wunderground v.1.15,2013-04-02 09:16:00,
2013-04-02 04:22:00,23.8,21.6,30.29,NW,325,4.0,4.0,91,0.00,,,0.00,Wunderground v.1.15,2013-04-02 09:22:00,
2013-04-02 04:28:00,24.1,21.6,30.29,NW,325,5.0,6.0,90,0.00,,,0.00,Wunderground v.1.15,2013-04-02 09:28:00,
2013-04-02 04:33:00,24.3,21.8,30.29,NW,325,7.0,9.0,90,0.00,,,0.00,Wunderground v.1.15,2013-04-02 09:33:00,
2013-04-02 04:38:00,24.5,22.0,30.29,NW,325,6.0,9.0,90,0.00,,,0.00,Wunderground v.1.15,2013-04-02 09:38:00,
2013-04-02 04:43:00,24.6,22.1,30.29,NW,325,6.0,6.0,90,0.00,,,0.00,Wunderground v.1.15,2013-04-02 09:43:00,
2013-04-02 04:48:00,24.7,22.2,30.29,NW,325,6.0,7.0,90,0.00,,,0.00,Wunderground v.1.15,2013-04-02 09:48:00,
2013-04-02 05:00:00,24.8,22.0,30.29,NW,325,6.0,6.0,89,0.00,,,0.00,Wunderground v.1.15,2013-04-02 10:00:00,
2013-04-02 05:05:00,24.8,21.8,30.29,NW,325,5.0,7.0,88,0.00,,,0.00,Wunderground v.1.15,2013-04-02 10:05:00,
2013-04-02 05:10:00,24.8,21.8,30.29,NW,326,6.0,7.0,88,0.00,,,0.00,Wunderground v.1.15,2013-04-02 10:10:00,
2013-04-02 05:15:00,24.9,22.1,30.29,NNW,327,7.0,9.0,89,0.00,,,0.00,Wunderground v.1.15,2013-04-02 10:15:00,
2013-04-02 05:30:00,25.5,22.2,30.30,NNW,327,4.0,8.0,87,0.00,,,0.00,Wunderground v.1.15,2013-04-02 10:30:00,
2013-04-02 05:35:00,25.5,22.2,30.30,NNW,327,3.0,6.0,87,0.00,,,0.00,Wunderground v.1.15,2013-04-02 10:35:00,
2013-04-02 05:40:00,25.2,21.9,30.30,NNW,327,2.0,6.0,87,0.00,,,0.00,Wunderground v.1.15,2013-04-02 10:40:00,
2013-04-02 05:45:00,24.9,21.6,30.30,NNW,327,2.0,3.0,87,0.00,,,0.00,Wunderground v.1.15,2013-04-02 10:45:00,
2013-04-02 05:51:00,24.3,20.7,30.30,NNW,327,2.0,4.0,86,0.00,,,0.00,Wunderground v.1.15,2013-04-02 10:51:00,
2013-04-02 06:00:00,23.4,20.1,30.31,NNW,327,0.0,2.0,87,0.00,,,0.00,Wunderground v.1.15,2013-04-02 11:00:00,
2013-04-02 06:05:00,23.3,20.3,30.31,NNW,327,2.0,6.0,88,0.00,,,0.00,Wunderground v.1.15,2013-04-02 11:05:00,
2013-04-02 06:10:00,23.1,20.1,30.31,NNW,327,3.0,3.0,88,0.00,,,0.00,Wunderground v.1.15,2013-04-02 11:10:00,
2013-04-02 06:15:00,23.1,20.1,30.31,NNW,327,2.0,3.0,88,0.00,,,0.00,Wunderground v.1.15,2013-04-02 11:15:00,
2013-04-02 06:20:00,22.6,19.3,30.31,NNW,327,1.0,4.0,87,0.00,,,0.00,Wunderground v.1.15,2013-04-02 11:20:00,
2013-04-02 06:25:00,22.1,18.8,30.31,NNW,327,2.0,3.0,87,0.00,,,0.00,Wunderground v.1.15,2013-04-02 11:25:00,
2013-04-02 06:30:00,22.0,19.0,30.31,NNW,327,2.0,3.0,88,0.00,,,0.00,Wunderground v.1.15,2013-04-02 11:30:00,
2013-04-02 06:35:00,21.9,19.2,30.32,NNW,327,3.0,3.0,89,0.00,,,0.00,Wunderground v.1.15,2013-04-02 11:35:00,
2013-04-02 06:40:00,21.8,19.1,30.32,NNW,327,1.0,3.0,89,0.00,,,0.00,Wunderground v.1.15,2013-04-02 11:40:00,
2013-04-02 06:45:00,21.6,18.6,30.32,NNW,327,1.0,3.0,88,0.00,,,0.00,Wunderground v.1.15,2013-04-02 11:45:00,
2013-04-02 06:50:00,21.4,18.7,30.32,NNW,327,0.0,3.0,89,0.00,,,0.00,Wunderground v.1.15,2013-04-02 11:50:00,
2013-04-02 06:55:00,21.4,18.7,30.32,NNW,327,2.0,2.0,89,0.00,,,0.00,Wunderground v.1.15,2013-04-02 11:55:00,
2013-04-02 07:00:00,21.6,19.1,30.32,NNW,327,3.0,3.0,90,0.00,,,0.00,Wunderground v.1.15,2013-04-02 12:00:00,
2013-04-02 07:05:00,21.8,19.3,30.33,NNW,327,2.0,3.0,90,0.00,,,0.00,Wunderground v.1.15,2013-04-02 12:05:00,
2013-04-02 07:10:00,22.0,19.5,30.33,NNW,327,2.0,3.0,90,0.00,,,0.00,Wunderground v.1.15,2013-04-02 12:10:00,
2013-04-02 07:15:00,22.1,19.6,30.33,NNW,327,2.0,2.0,90,0.00,,,0.00,Wunderground v.1.15,2013-04-02 12:15:00,
2013-04-02 07:20:00,22.2,19.7,30.33,NNW,327,1.0,3.0,90,0.00,,,0.00,Wunderground v.1.15,2013-04-02 12:20:00,
2013-04-02 07:25:00,22.4,20.2,30.33,NNW,327,2.0,4.0,91,0.00,,,0.00,Wunderground v.1.15,2013-04-02 12:25:00,
2013-04-02 07:30:00,22.6,20.4,30.33,NNW,327,3.0,4.0,91,0.00,,,0.00,Wunderground v.1.15,2013-04-02 12:30:00,
2013-04-02 07:35:00,22.9,20.7,30.33,NNW,327,3.0,5.0,91,0.00,,,0.00,Wunderground v.1.15,2013-04-02 12:35:00,
2013-04-02 07:40:00,23.3,21.1,30.34,NNW,327,3.0,5.0,91,0.00,,,0.00,Wunderground v.1.15,2013-04-02 12:40:00,
2013-04-02 07:45:00,23.8,21.6,30.34,NNW,327,4.0,6.0,91,0.00,,,0.00,Wunderground v.1.15,2013-04-02 12:45:00,
2013-04-02 07:50:00,24.2,22.0,30.34,NNW,327,3.0,6.0,91,0.00,,,0.00,Wunderground v.1.15,2013-04-02 12:50:00,
2013-04-02 07:56:00,24.7,22.4,30.34,NW,325,5.0,7.0,91,0.00,,,0.00,Wunderground v.1.15,2013-04-02 12:56:00,
2013-04-02 08:02:00,25.1,22.6,30.34,NW,311,6.0,6.0,90,0.00,,,0.00,Wunderground v.1.15,2013-04-02 13:02:00,
2013-04-02 08:08:00,25.4,22.9,30.34,NW,311,4.0,7.0,90,0.00,,,0.00,Wunderground v.1.15,2013-04-02 13:08:00,
2013-04-02 08:13:00,25.7,22.9,30.34,NW,309,5.0,6.0,89,0.00,,,0.00,Wunderground v.1.15,2013-04-02 13:13:00,
2013-04-02 08:18:00,26.0,23.2,30.34,NW,308,6.0,8.0,89,0.00,,,0.00,Wunderground v.1.15,2013-04-02 13:18:00,
2013-04-02 08:23:00,26.3,23.5,30.34,NW,306,6.0,8.0,89,0.00,,,0.00,Wunderground v.1.15,2013-04-02 13:23:00,
2013-04-02 08:28:00,26.6,23.5,30.35,NW,306,5.0,9.0,88,0.00,,,0.00,Wunderground v.1.15,2013-04-02 13:28:00,
2013-04-02 08:33:00,26.8,23.7,30.35,NW,308,7.0,8.0,88,0.00,,,0.00,Wunderground v.1.15,2013-04-02 13:33:00,
2013-04-02 08:38:00,27.1,23.7,30.35,NW,309,6.0,9.0,87,0.00,,,0.00,Wunderground v.1.15,2013-04-02 13:38:00,
2013-04-02 08:43:00,27.4,24.0,30.35,NW,310,8.0,9.0,87,0.00,,,0.00,Wunderground v.1.15,2013-04-02 13:43:00,
2013-04-02 08:48:00,27.7,24.1,30.34,NW,319,9.0,9.0,86,0.00,,,0.00,Wunderground v.1.15,2013-04-02 13:48:00,
2013-04-02 08:53:00,28.0,24.4,30.34,NW,319,7.0,7.0,86,0.00,,,0.00,Wunderground v.1.15,2013-04-02 13:53:00,
2013-04-02 08:58:00,28.1,24.2,30.35,NW,321,8.0,10.0,85,0.00,,,0.00,Wunderground v.1.15,2013-04-02 13:58:00,
2013-04-02 09:03:00,28.4,24.2,30.35,NW,324,7.0,7.0,84,0.00,,,0.00,Wunderground v.1.15,2013-04-02 14:03:00,
2013-04-02 09:08:00,28.7,24.2,30.35,NW,325,8.0,9.0,83,0.00,,,0.00,Wunderground v.1.15,2013-04-02 14:08:00,
2013-04-02 09:13:00,28.8,24.0,30.35,NW,325,7.0,7.0,82,0.00,,,0.00,Wunderground v.1.15,2013-04-02 14:13:00,
2013-04-02 09:18:00,29.0,24.2,30.35,NW,321,6.0,8.0,82,0.00,,,0.00,Wunderground v.1.15,2013-04-02 14:18:00,
2013-04-02 09:23:00,29.2,24.1,30.35,NW,315,6.0,7.0,81,0.00,,,0.00,Wunderground v.1.15,2013-04-02 14:23:00,
2013-04-02 09:28:00,29.5,24.4,30.35,NW,317,6.0,8.0,81,0.00,,,0.00,Wunderground v.1.15,2013-04-02 14:28:00,
2013-04-02 09:33:00,29.7,24.3,30.35,NW,317,8.0,8.0,80,0.00,,,0.00,Wunderground v.1.15,2013-04-02 14:33:00,
2013-04-02 09:38:00,30.2,24.5,30.35,NW,316,7.0,8.0,79,0.00,,,0.00,Wunderground v.1.15,2013-04-02 14:38:00,
2013-04-02 09:43:00,30.6,23.6,30.35,NW,325,7.0,7.0,75,0.00,,,0.00,Wunderground v.1.15,2013-04-02 14:43:00,
2013-04-02 09:48:00,30.9,22.9,30.35,NW,325,8.0,9.0,72,0.00,,,0.00,Wunderground v.1.15,2013-04-02 14:48:00,
2013-04-02 09:53:00,31.1,22.8,30.35,NW,322,8.0,9.0,71,0.00,,,0.00,Wunderground v.1.15,2013-04-02 14:53:00,
2013-04-02 09:58:00,31.4,22.1,30.35,WNW,300,6.0,11.0,68,0.00,,,0.00,Wunderground v.1.15,2013-04-02 14:58:00,
2013-04-02 10:03:00,31.7,22.0,30.35,NW,307,7.0,8.0,67,0.00,,,0.00,Wunderground v.1.15,2013-04-02 15:03:00,
2013-04-02 10:08:00,31.9,21.5,30.35,NW,314,7.0,11.0,65,0.00,,,0.00,Wunderground v.1.15,2013-04-02 15:08:00,
2013-04-02 10:13:00,32.0,21.2,30.35,WNW,303,8.0,10.0,64,0.00,,,0.00,Wunderground v.1.15,2013-04-02 15:13:00,
2013-04-02 10:18:00,32.3,22.6,30.35,WNW,300,7.0,10.0,67,0.00,,,0.00,Wunderground v.1.15,2013-04-02 15:18:00,
2013-04-02 10:23:00,32.5,22.8,30.35,NW,313,7.0,7.0,67,0.00,,,0.00,Wunderground v.1.15,2013-04-02 15:23:00,
2013-04-02 10:28:00,32.6,21.4,30.35,NW,317,6.0,11.0,63,0.00,,,0.00,Wunderground v.1.15,2013-04-02 15:28:00,
2013-04-02 10:33:00,32.9,22.0,30.35,WNW,282,8.0,10.0,64,0.00,,,0.00,Wunderground v.1.15,2013-04-02 15:33:00,
2013-04-02 10:38:00,33.3,23.2,30.35,NW,325,8.0,11.0,66,0.00,,,0.00,Wunderground v.1.15,2013-04-02 15:38:00,
2013-04-02 10:43:00,33.5,23.0,30.35,NW,309,6.0,9.0,65,0.00,,,0.00,Wunderground v.1.15,2013-04-02 15:43:00,
2013-04-02 10:49:00,33.7,24.3,30.35,WNW,295,11.0,11.0,68,0.00,,,0.00,Wunderground v.1.15,2013-04-02 15:49:00,
2013-04-02 10:54:00,33.9,24.4,30.35,NW,313,10.0,14.0,68,0.00,,,0.00,Wunderground v.1.15,2013-04-02 15:54:00,
2013-04-02 10:59:00,34.0,24.9,30.35,NNW,327,10.0,14.0,69,0.00,,,0.00,Wunderground v.1.15,2013-04-02 15:59:00,
2013-04-02 11:04:00,34.3,25.9,30.35,NNW,336,9.0,12.0,71,0.00,,,0.00,Wunderground v.1.15,2013-04-02 16:04:00,
2013-04-02 11:09:00,34.3,25.2,30.35,NW,319,9.0,12.0,69,0.00,,,0.00,Wunderground v.1.15,2013-04-02 16:09:00,
2013-04-02 11:14:00,34.4,26.3,30.35,NW,311,9.0,14.0,72,0.00,,,0.00,Wunderground v.1.15,2013-04-02 16:14:00,
2013-04-02 11:19:00,34.5,25.4,30.35,NW,318,10.0,15.0,69,0.00,,,0.00,Wunderground v.1.15,2013-04-02 16:19:00,
2013-04-02 11:25:00,34.8,26.4,30.35,WNW,290,9.0,12.0,71,0.00,,,0.00,Wunderground v.1.15,2013-04-02 16:25:00,
2013-04-02 11:30:00,34.5,25.0,30.35,West,281,11.0,15.0,68,0.00,,,0.00,Wunderground v.1.15,2013-04-02 16:30:00,
2013-04-02 11:35:00,34.6,25.5,30.34,NNW,330,14.0,16.0,69,0.00,,,0.00,Wunderground v.1.15,2013-04-02 16:35:00,
2013-04-02 11:40:00,34.5,25.4,30.34,WNW,301,13.0,16.0,69,0.00,,,0.00,Wunderground v.1.15,2013-04-02 16:40:00,
2013-04-02 11:46:00,35.0,26.5,30.34,NW,315,11.0,12.0,71,0.00,,,0.00,Wunderground v.1.15,2013-04-02 16:46:00,
2013-04-02 11:52:00,35.2,26.0,30.34,WNW,301,14.0,14.0,69,0.00,,,0.00,Wunderground v.1.15,2013-04-02 16:52:00,
2013-04-02 11:57:00,35.2,26.0,30.34,WNW,286,10.0,15.0,69,0.00,,,0.00,Wunderground v.1.15,2013-04-02 16:57:00,
2013-04-02 12:02:00,35.5,26.0,30.34,WNW,285,16.0,16.0,68,0.00,,,0.00,Wunderground v.1.15,2013-04-02 17:02:00,
2013-04-02 12:08:00,35.9,26.0,30.34,NW,304,12.0,17.0,67,0.00,,,0.00,Wunderground v.1.15,2013-04-02 17:08:00,
2013-04-02 12:13:00,35.9,26.4,30.34,West,274,10.0,12.0,68,0.00,,,0.00,Wunderground v.1.15,2013-04-02 17:13:00,
2013-04-02 12:18:00,35.8,26.3,30.34,WNW,302,10.0,19.0,68,0.00,,,0.00,Wunderground v.1.15,2013-04-02 17:18:00,
2013-04-02 12:23:00,35.6,26.1,30.34,WNW,303,11.0,14.0,68,0.00,,,0.00,Wunderground v.1.15,2013-04-02 17:23:00,
2013-04-02 12:28:00,35.7,26.9,30.34,WNW,286,15.0,15.0,70,0.00,,,0.00,Wunderground v.1.15,2013-04-02 17:28:00,
2013-04-02 12:33:00,36.2,25.9,30.34,WNW,290,13.0,13.0,66,0.00,,,0.00,Wunderground v.1.15,2013-04-02 17:33:00,
2013-04-02 12:38:00,36.5,27.3,30.33,WNW,295,14.0,19.0,69,0.00,,,0.00,Wunderground v.1.15,2013-04-02 17:38:00,
2013-04-02 12:43:00,36.5,26.9,30.33,NW,313,10.0,15.0,68,0.00,,,0.00,Wunderground v.1.15,2013-04-02 17:43:00,
2013-04-02 12:49:00,36.8,27.9,30.33,NW,310,10.0,16.0,70,0.00,,,0.00,Wunderground v.1.15,2013-04-02 17:49:00,
2013-04-02 12:54:00,36.9,27.7,30.33,NW,314,15.0,15.0,69,0.00,,,0.00,Wunderground v.1.15,2013-04-02 17:54:00,
2013-04-02 12:59:00,36.9,27.0,30.33,WNW,292,14.0,17.0,67,0.00,,,0.00,Wunderground v.1.15,2013-04-02 17:59:00,
2013-04-02 13:04:00,37.3,27.3,30.33,NW,311,13.0,18.0,67,0.00,,,0.00,Wunderground v.1.15,2013-04-02 18:04:00,
2013-04-02 13:09:00,37.2,27.2,30.33,NW,318,11.0,14.0,67,0.00,,,0.00,Wunderground v.1.15,2013-04-02 18:09:00,
2013-04-02 13:14:00,37.1,28.2,30.33,NNW,329,13.0,17.0,70,0.00,,,0.00,Wunderground v.1.15,2013-04-02 18:14:00,
2013-04-02 13:19:00,36.8,26.5,30.33,WNW,302,14.0,17.0,66,0.00,,,0.00,Wunderground v.1.15,2013-04-02 18:19:00,
2013-04-02 13:24:00,37.0,27.8,30.33,WNW,300,16.0,16.0,69,0.00,,,0.00,Wunderground v.1.15,2013-04-02 18:24:00,
2013-04-02 13:29:00,37.7,27.7,30.33,NW,317,13.0,18.0,67,0.00,,,0.00,Wunderground v.1.15,2013-04-02 18:29:00,
2013-04-02 13:34:00,37.4,27.1,30.33,NW,325,15.0,17.0,66,0.00,,,0.00,Wunderground v.1.15,2013-04-02 18:34:00,
2013-04-02 13:39:00,37.3,27.0,30.33,NW,315,10.0,18.0,66,0.00,,,0.00,Wunderground v.1.15,2013-04-02 18:39:00,
2013-04-02 13:44:00,36.9,27.0,30.33,NW,307,10.0,15.0,67,0.00,,,0.00,Wunderground v.1.15,2013-04-02 18:44:00,
2013-04-02 13:49:00,37.3,27.7,30.32,NNW,340,15.0,17.0,68,0.00,,,0.00,Wunderground v.1.15,2013-04-02 18:49:00,
2013-04-02 13:55:00,37.6,26.5,30.32,NW,315,11.0,17.0,64,0.00,,,0.00,Wunderground v.1.15,2013-04-02 18:55:00,
2013-04-02 14:00:00,37.8,28.2,30.32,NW,315,16.0,16.0,68,0.00,,,0.00,Wunderground v.1.15,2013-04-02 19:00:00,
2013-04-02 14:05:00,38.0,28.0,30.32,WNW,292,12.0,16.0,67,0.00,,,0.00,Wunderground v.1.15,2013-04-02 19:05:00,
2013-04-02 14:10:00,38.4,28.0,30.32,NW,323,11.0,18.0,66,0.00,,,0.00,Wunderground v.1.15,2013-04-02 19:10:00,
2013-04-02 14:15:00,38.6,27.1,30.32,NNW,338,22.0,22.0,63,0.00,,,0.00,Wunderground v.1.15,2013-04-02 19:15:00,
2013-04-02 14:20:00,38.3,27.6,30.32,WNW,297,18.0,22.0,65,0.00,,,0.00,Wunderground v.1.15,2013-04-02 19:20:00,
2013-04-02 14:25:00,38.5,26.6,30.31,NW,315,14.0,18.0,62,0.00,,,0.00,Wunderground v.1.15,2013-04-02 19:25:00,
2013-04-02 14:30:00,38.7,28.7,30.32,WNW,302,13.0,19.0,67,0.00,,,0.00,Wunderground v.1.15,2013-04-02 19:30:00,
2013-04-02 14:35:00,38.8,28.0,30.32,NW,308,18.0,20.0,65,0.00,,,0.00,Wunderground v.1.15,2013-04-02 19:35:00,
2013-04-02 14:40:00,38.8,25.7,30.31,NW,309,12.0,20.0,59,0.00,,,0.00,Wunderground v.1.15,2013-04-02 19:40:00,
2013-04-02 14:45:00,38.6,25.5,30.31,NW,309,16.0,16.0,59,0.00,,,0.00,Wunderground v.1.15,2013-04-02 19:45:00,
2013-04-02 14:51:00,38.9,27.4,30.31,WNW,296,14.0,19.0,63,0.00,,,0.00,Wunderground v.1.15,2013-04-02 19:51:00,
2013-04-02 14:56:00,39.0,27.5,30.31,NW,309,14.0,17.0,63,0.00,,,0.00,Wunderground v.1.15,2013-04-02 19:56:00,
2013-04-02 15:03:00,39.2,27.7,30.31,NW,323,18.0,18.0,63,0.00,,,0.00,Wunderground v.1.15,2013-04-02 20:03:00,
2013-04-02 15:08:00,39.2,28.0,30.31,NNW,329,14.0,21.0,64,0.00,,,0.00,Wunderground v.1.15,2013-04-02 20:08:00,
2013-04-02 15:13:00,39.4,27.5,30.30,NW,323,15.0,16.0,62,0.00,,,0.00,Wunderground v.1.15,2013-04-02 20:13:00,
2013-04-02 15:18:00,39.3,27.7,30.30,North,355,15.0,20.0,63,0.00,,,0.00,Wunderground v.1.15,2013-04-02 20:18:00,
2013-04-02 15:23:00,39.5,27.9,30.31,WNW,298,13.0,17.0,63,0.00,,,0.00,Wunderground v.1.15,2013-04-02 20:23:00,
2013-04-02 15:28:00,39.6,28.8,30.31,NNW,345,12.0,20.0,65,0.00,,,0.00,Wunderground v.1.15,2013-04-02 20:28:00,
2013-04-02 15:34:00,39.9,29.1,30.31,NNW,329,17.0,21.0,65,0.00,,,0.00,Wunderground v.1.15,2013-04-02 20:34:00,
2013-04-02 15:39:00,40.0,28.8,30.31,NNW,336,10.0,21.0,64,0.00,,,0.00,Wunderground v.1.15,2013-04-02 20:39:00,
2013-04-02 15:44:00,39.8,27.8,30.31,NW,325,16.0,18.0,62,0.00,,,0.00,Wunderground v.1.15,2013-04-02 20:44:00,
2013-04-02 15:49:00,39.3,28.5,30.30,NNW,335,15.0,25.0,65,0.00,,,0.00,Wunderground v.1.15,2013-04-02 20:49:00,
2013-04-02 15:54:00,39.6,28.8,30.31,NW,326,11.0,19.0,65,0.00,,,0.00,Wunderground v.1.15,2013-04-02 20:54:00,
2013-04-02 15:59:00,39.6,28.4,30.31,NNW,336,17.0,21.0,64,0.00,,,0.00,Wunderground v.1.15,2013-04-02 20:59:00,
2013-04-02 16:04:00,39.7,28.9,30.31,NW,322,17.0,19.0,65,0.00,,,0.00,Wunderground v.1.15,2013-04-02 21:04:00,
2013-04-02 16:09:00,39.4,29.0,30.31,NW,317,13.0,17.0,66,0.00,,,0.00,Wunderground v.1.15,2013-04-02 21:09:00,
2013-04-02 16:14:00,38.6,27.5,30.31,NNW,346,14.0,17.0,64,0.00,,,0.00,Wunderground v.1.15,2013-04-02 21:14:00,
2013-04-02 16:19:00,39.0,27.5,30.31,NW,315,14.0,20.0,63,0.00,,,0.00,Wunderground v.1.15,2013-04-02 21:19:00,
2013-04-02 16:24:00,39.5,27.9,30.31,NW,324,17.0,20.0,63,0.00,,,0.00,Wunderground v.1.15,2013-04-02 21:24:00,
2013-04-02 16:29:00,39.5,27.9,30.31,NW,325,14.0,20.0,63,0.00,,,0.00,Wunderground v.1.15,2013-04-02 21:29:00,
2013-04-02 16:34:00,39.8,30.1,30.31,North,355,17.0,18.0,68,0.00,,,0.00,Wunderground v.1.15,2013-04-02 21:34:00,
2013-04-02 16:39:00,39.2,28.4,30.31,NNW,339,12.0,20.0,65,0.00,,,0.00,Wunderground v.1.15,2013-04-02 21:39:00,
2013-04-02 16:44:00,38.4,28.0,30.31,NNW,343,15.0,17.0,66,0.00,,,0.00,Wunderground v.1.15,2013-04-02 21:44:00,
2013-04-02 16:49:00,37.8,27.1,30.31,NNW,331,16.0,19.0,65,0.00,,,0.00,Wunderground v.1.15,2013-04-02 21:49:00,
2013-04-02 16:54:00,38.0,27.3,30.31,NNW,327,15.0,21.0,65,0.00,,,0.00,Wunderground v.1.15,2013-04-02 21:54:00,
2013-04-02 16:59:00,38.0,26.9,30.31,NNW,341,15.0,21.0,64,0.00,,,0.00,Wunderground v.1.15,2013-04-02 21:59:00,
2013-04-02 17:04:00,38.6,28.6,30.31,NNW,346,15.0,16.0,67,0.00,,,0.00,Wunderground v.1.15,2013-04-02 22:04:00,
2013-04-02 17:09:00,39.1,27.6,30.31,North,350,13.0,18.0,63,0.00,,,0.00,Wunderground v.1.15,2013-04-02 22:09:00,
2013-04-02 17:14:00,38.3,27.2,30.31,NNW,331,15.0,16.0,64,0.00,,,0.00,Wunderground v.1.15,2013-04-02 22:14:00,
2013-04-02 17:19:00,38.4,27.7,30.31,NNW,329,14.0,17.0,65,0.00,,,0.00,Wunderground v.1.15,2013-04-02 22:19:00,
2013-04-02 17:25:00,38.6,26.7,30.31,NNW,336,13.0,18.0,62,0.00,,,0.00,Wunderground v.1.15,2013-04-02 22:25:00,
2013-04-02 17:30:00,38.5,28.1,30.32,NNW,342,13.0,18.0,66,0.00,,,0.00,Wunderground v.1.15,2013-04-02 22:30:00,
2013-04-02 17:35:00,38.4,26.9,30.32,NNW,342,12.0,15.0,63,0.00,,,0.00,Wunderground v.1.15,2013-04-02 22:35:00,
2013-04-02 17:40:00,37.8,26.7,30.31,NNW,344,14.0,17.0,64,0.00,,,0.00,Wunderground v.1.15,2013-04-02 22:40:00,
2013-04-02 17:45:00,37.3,26.6,30.32,NNW,344,9.0,14.0,65,0.00,,,0.00,Wunderground v.1.15,2013-04-02 22:45:00,
2013-04-02 17:50:00,37.5,27.2,30.31,NNW,338,10.0,16.0,66,0.00,,,0.00,Wunderground v.1.15,2013-04-02 22:50:00,
2013-04-02 17:55:00,37.7,27.4,30.31,NNW,333,12.0,14.0,66,0.00,,,0.00,Wunderground v.1.15,2013-04-02 22:55:00,
2013-04-02 18:02:00,37.5,27.2,30.32,NNW,333,16.0,16.0,66,0.00,,,0.00,Wunderground v.1.15,2013-04-02 23:02:00,
2013-04-02 18:08:00,37.0,27.1,30.32,NW,325,11.0,16.0,67,0.00,,,0.00,Wunderground v.1.15,2013-04-02 23:08:00,
2013-04-02 18:13:00,36.6,27.4,30.32,NNW,327,11.0,11.0,69,0.00,,,0.00,Wunderground v.1.15,2013-04-02 23:13:00,
2013-04-02 18:18:00,36.2,27.4,30.32,NNW,327,7.0,11.0,70,0.00,,,0.00,Wunderground v.1.15,2013-04-02 23:18:00,
2013-04-02 18:23:00,36.0,26.8,30.32,NW,322,7.0,9.0,69,0.00,,,0.00,Wunderground v.1.15,2013-04-02 23:23:00,
2013-04-02 18:28:00,35.9,27.1,30.32,NW,322,10.0,10.0,70,0.00,,,0.00,Wunderground v.1.15,2013-04-02 23:28:00,
2013-04-02 18:33:00,36.3,27.1,30.32,NW,321,8.0,10.0,69,0.00,,,0.00,Wunderground v.1.15,2013-04-02 23:33:00,
2013-04-02 18:38:00,37.0,27.8,30.32,NNW,327,10.0,12.0,69,0.00,,,0.00,Wunderground v.1.15,2013-04-02 23:38:00,
2013-04-02 18:43:00,37.2,26.9,30.32,NNW,336,12.0,14.0,66,0.00,,,0.00,Wunderground v.1.15,2013-04-02 23:43:00,
2013-04-02 18:48:00,37.0,27.1,30.32,NNW,341,12.0,14.0,67,0.00,,,0.00,Wunderground v.1.15,2013-04-02 23:48:00,
2013-04-02 18:53:00,36.8,27.2,30.32,NNW,340,8.0,10.0,68,0.00,,,0.00,Wunderground v.1.15,2013-04-02 23:53:00,
2013-04-02 18:58:00,36.7,26.8,30.32,NNW,335,8.0,10.0,67,0.00,,,0.00,Wunderground v.1.15,2013-04-02 23:58:00,
2013-04-02 19:03:00,36.6,26.7,30.33,NNW,340,10.0,10.0,67,0.00,,,0.00,Wunderground v.1.15,2013-04-03 00:03:00,
2013-04-02 19:08:00,36.3,26.7,30.32,NNW,338,9.0,12.0,68,0.00,,,0.00,Wunderground v.1.15,2013-04-03 00:08:00,
2013-04-02 19:13:00,36.1,26.6,30.33,NNW,340,7.0,9.0,68,0.00,,,0.00,Wunderground v.1.15,2013-04-03 00:13:00,
2013-04-02 19:18:00,35.7,26.5,30.33,NNW,339,9.0,10.0,69,0.00,,,0.00,Wunderground v.1.15,2013-04-03 00:18:00,
2013-04-02 19:23:00,35.5,26.3,30.33,NNW,337,9.0,9.0,69,0.00,,,0.00,Wunderground v.1.15,2013-04-03 00:23:00,
2013-04-02 19:28:00,35.1,26.3,30.33,NNW,339,6.0,9.0,70,0.00,,,0.00,Wunderground v.1.15,2013-04-03 00:28:00,
2013-04-02 19:33:00,34.6,26.2,30.33,NNW,340,6.0,8.0,71,0.00,,,0.00,Wunderground v.1.15,2013-04-03 00:33:00,
2013-04-02 19:38:00,34.1,26.0,30.33,NNW,340,6.0,8.0,72,0.00,,,0.00,Wunderground v.1.15,2013-04-03 00:38:00,
2013-04-02 19:43:00,33.8,26.1,30.33,NNW,341,7.0,8.0,73,0.00,,,0.00,Wunderground v.1.15,2013-04-03 00:43:00,
2013-04-02 19:48:00,33.5,26.4,30.33,NNW,341,6.0,8.0,75,0.00,,,0.00,Wunderground v.1.15,2013-04-03 00:48:00,
2013-04-02 19:53:00,33.3,26.5,30.33,NNW,341,6.0,6.0,76,0.00,,,0.00,Wunderground v.1.15,2013-04-03 00:53:00,
2013-04-02 19:58:00,33.3,26.5,30.33,NNW,341,5.0,7.0,76,0.00,,,0.00,Wunderground v.1.15,2013-04-03 00:58:00,
2013-04-02 20:03:00,33.2,26.8,30.33,NNW,341,6.0,6.0,77,0.00,,,0.00,Wunderground v.1.15,2013-04-03 01:03:00,
2013-04-02 20:09:00,33.0,26.6,30.33,NNW,341,6.0,6.0,77,0.00,,,0.00,Wunderground v.1.15,2013-04-03 01:09:00,
2013-04-02 20:14:00,32.9,26.5,30.33,NNW,341,5.0,6.0,77,0.00,,,0.00,Wunderground v.1.15,2013-04-03 01:14:00,
2013-04-02 20:19:00,32.8,26.7,30.33,NNW,341,5.0,6.0,78,0.00,,,0.00,Wunderground v.1.15,2013-04-03 01:19:00,
2013-04-02 20:24:00,32.7,26.6,30.33,NNW,341,4.0,6.0,78,0.00,,,0.00,Wunderground v.1.15,2013-04-03 01:24:00,
2013-04-02 20:29:00,32.6,26.8,30.34,NNW,341,4.0,6.0,79,0.00,,,0.00,Wunderground v.1.15,2013-04-03 01:29:00,
2013-04-02 20:34:00,32.3,26.5,30.34,NNW,341,5.0,5.0,79,0.00,,,0.00,Wunderground v.1.15,2013-04-03 01:34:00,
2013-04-02 20:39:00,32.1,26.3,30.34,NNW,341,3.0,5.0,79,0.00,,,0.00,Wunderground v.1.15,2013-04-03 01:39:00,
2013-04-02 20:44:00,31.9,26.7,30.34,NNW,341,3.0,4.0,81,0.00,,,0.00,Wunderground v.1.15,2013-04-03 01:44:00,
2013-04-02 20:49:00,31.6,26.4,30.34,NNW,341,4.0,4.0,81,0.00,,,0.00,Wunderground v.1.15,2013-04-03 01:49:00,
2013-04-02 20:54:00,31.5,26.3,30.34,NNW,341,4.0,4.0,81,0.00,,,0.00,Wunderground v.1.15,2013-04-03 01:54:00,
2013-04-02 20:59:00,31.5,26.3,30.34,NNW,341,4.0,5.0,81,0.00,,,0.00,Wunderground v.1.15,2013-04-03 01:59:00,
2013-04-02 21:04:00,31.4,26.2,30.34,NNW,341,4.0,4.0,81,0.00,,,0.00,Wunderground v.1.15,2013-04-03 02:04:00,
2013-04-02 21:09:00,31.2,26.3,30.34,NNW,341,4.0,4.0,82,0.00,,,0.00,Wunderground v.1.15,2013-04-03 02:09:00,
2013-04-02 21:14:00,31.0,26.1,30.34,NNW,341,3.0,4.0,82,0.00,,,0.00,Wunderground v.1.15,2013-04-03 02:14:00,
2013-04-02 21:28:00,30.7,26.1,30.35,NNW,341,2.0,3.0,83,0.00,,,0.00,Wunderground v.1.15,2013-04-03 02:28:00,
2013-04-02 21:33:00,30.6,26.1,30.35,NNW,341,2.0,3.0,83,0.00,,,0.00,Wunderground v.1.15,2013-04-03 02:33:00,
2013-04-02 21:38:00,30.5,26.0,30.36,NNW,341,4.0,4.0,83,0.00,,,0.00,Wunderground v.1.15,2013-04-03 02:38:00,
2013-04-02 21:43:00,30.3,25.8,30.36,NNW,341,2.0,3.0,83,0.00,,,0.00,Wunderground v.1.15,2013-04-03 02:43:00,
2013-04-02 21:49:00,30.2,25.4,30.36,NNW,341,0.0,3.0,82,0.00,,,0.00,Wunderground v.1.15,2013-04-03 02:49:00,
2013-04-02 21:54:00,30.0,24.9,30.36,NNW,341,3.0,3.0,81,0.00,,,0.00,Wunderground v.1.15,2013-04-03 02:54:00,
2013-04-02 21:59:00,30.0,24.9,30.36,NNW,341,3.0,3.0,81,0.00,,,0.00,Wunderground v.1.15,2013-04-03 02:59:00,
2013-04-02 22:04:00,29.9,24.8,30.36,NNW,341,0.0,2.0,81,0.00,,,0.00,Wunderground v.1.15,2013-04-03 03:04:00,
2013-04-02 22:09:00,29.8,24.7,30.36,NNW,341,0.0,1.0,81,0.00,,,0.00,Wunderground v.1.15,2013-04-03 03:09:00,
2013-04-02 22:14:00,29.6,24.5,30.36,NNW,341,0.0,0.0,81,0.00,,,0.00,Wunderground v.1.15,2013-04-03 03:14:00,
2013-04-02 22:20:00,29.4,24.3,30.36,NNW,341,0.0,0.0,81,0.00,,,0.00,Wunderground v.1.15,2013-04-03 03:20:00,
2013-04-02 22:25:00,29.2,24.1,30.36,NNW,341,0.0,0.0,81,0.00,,,0.00,Wunderground v.1.15,2013-04-03 03:25:00,
2013-04-02 22:30:00,29.1,24.3,30.36,NNW,341,0.0,0.0,82,0.00,,,0.00,Wunderground v.1.15,2013-04-03 03:30:00,
2013-04-02 22:35:00,29.0,24.2,30.36,NNW,341,0.0,0.0,82,0.00,,,0.00,Wunderground v.1.15,2013-04-03 03:35:00,
2013-04-02 22:40:00,28.9,24.1,30.36,NNW,341,0.0,0.0,82,0.00,,,0.00,Wunderground v.1.15,2013-04-03 03:40:00,
2013-04-02 22:45:00,28.9,24.1,30.37,NNW,341,0.0,0.0,82,0.00,,,0.00,Wunderground v.1.15,2013-04-03 03:45:00,
2013-04-02 22:50:00,28.9,23.8,30.37,NNW,341,0.0,0.0,81,0.00,,,0.00,Wunderground v.1.15,2013-04-03 03:50:00,
2013-04-02 22:55:00,28.9,23.5,30.37,NNW,341,0.0,0.0,80,0.00,,,0.00,Wunderground v.1.15,2013-04-03 03:55:00,
2013-04-02 23:00:00,29.0,23.6,30.37,NNW,341,0.0,0.0,80,0.00,,,0.00,Wunderground v.1.15,2013-04-03 04:00:00,
2013-04-02 23:05:00,29.0,23.3,30.37,NNW,341,0.0,0.0,79,0.00,,,0.00,Wunderground v.1.15,2013-04-03 04:05:00,
2013-04-02 23:10:00,29.1,23.4,30.36,NNW,341,0.0,0.0,79,0.00,,,0.00,Wunderground v.1.15,2013-04-03 04:10:00,
2013-04-02 23:15:00,29.2,23.2,30.37,NNW,341,0.0,0.0,78,0.00,,,0.00,Wunderground v.1.15,2013-04-03 04:15:00,
2013-04-02 23:20:00,29.2,23.2,30.37,NNW,341,0.0,0.0,78,0.00,,,0.00,Wunderground v.1.15,2013-04-03 04:20:00,
2013-04-02 23:25:00,29.3,23.3,30.37,NNW,341,0.0,0.0,78,0.00,,,0.00,Wunderground v.1.15,2013-04-03 04:25:00,
2013-04-02 23:30:00,29.3,23.3,30.36,NNW,341,0.0,0.0,78,0.00,,,0.00,Wunderground v.1.15,2013-04-03 04:30:00,
2013-04-02 23:35:00,29.3,23.6,30.36,NNW,341,0.0,0.0,79,0.00,,,0.00,Wunderground v.1.15,2013-04-03 04:35:00,
2013-04-02 23:40:00,29.3,23.6,30.36,NNW,341,0.0,0.0,79,0.00,,,0.00,Wunderground v.1.15,2013-04-03 04:40:00,
2013-04-02 23:45:00,29.2,23.5,30.36,NNW,341,0.0,0.0,79,0.00,,,0.00,Wunderground v.1.15,2013-04-03 04:45:00,
2013-04-02 23:50:00,29.2,23.5,30.36,NNW,341,0.0,0.0,79,0.00,,,0.00,Wunderground v.1.15,2013-04-03 04:50:00,
2013-04-02 23:55:00,29.0,23.3,30.36,NNW,341,0.0,0.0,79,0.00,,,0.00,Wunderground v.1.15,2013-04-03 04:55:00,